Aérodrome :
LOGIN :

S'inscrire | Disclaimer

   EN    FR    IT 

 










Légende :    VFR   VFR Marginal   IFR   IFR Intensif   IFR Très Intensif
Visi : 
Plafond : 
>= 8 km
>= 3000ft
5 à 8 km
1000 à 3000 ft
1500m à 5 km
500 à 1000 ft
800 à 1500m
200 à 500 ft
< 800m
< 200 ft
Symboles :   Orages  Brouillard  Fortes neiges  Fortes précipitations  Vent > 20 kt
SIGMETs :   Divers  Orages  Givrage  Turbulence  Onde Orograph.  Cendres Volcan.







- Altitude de l'aérodrome : 616 ft
- Code IATA : PUF
- Voir les cartes d'approche


LFBP - Pau

DERNIER METAR :
  • 250430Z AUTO 34004KT 4600 BR OVC003 13/12 Q1020 TEMPO BKN008 BECMG 9999 NSW

METARs EXPIRÉS :
  • 250400Z AUTO 33004KT 4900 BR BKN003 BKN008 OVC014 13/12 Q1019 TEMPO BKN008 BECMG 9999 NSW
  • 250330Z AUTO 32005KT 4600 -DZ BR BKN003 OVC014 13/13 Q1019 TEMPO BKN008 BECMG 9999 NSW
  • 250300Z AUTO 30007KT 4200 BR BKN004 OVC009 13/12 Q1019 NOSIG
  • 250230Z AUTO 30008KT 4700 -DZ BR BKN004 OVC009 13/13 Q1019 NOSIG
  • 250200Z AUTO 31006KT 280V350 4900 BR BKN004 OVC010 13/13 Q1019 TEMPO BKN008 BECMG 9999 NSW

TAF AMD TAF LFBP
Valide du 25 à 02h jusqu'au 26 à 00h UTC


250212Z 2502/2524 28005KT 9999 BKN020
TEMPO 2502/2512 BKN008
TEMPO 2502/2505 3000 BR BKN003
PROB30
TEMPO 2514/2518 3500 -DZ BKN005
Pas de NOTAMs connus pour ce terrain.



MET'MAP, la Météo Aéronautique d'un coup d'oeil ! - Copyright ORBIFLY Décembre 2007 - Disclaimer

ORBIFLY MET'MAP TEAM :

Programmation & Développement : Alexandra Zaïnal
Conception & Développement : Baudouin d'Aumeries
Co-Programmation & Développement : Marc-Olivier Méhu
Soutien technique & logistique : Manuel Goepfert

Contact : metmap@orbifly.com




SOURCES & CREDITS :

   NOAA